KEED/EED METAR and TAF weather

Enter ICAO airport designator
Station Type Date Time Source
KEED METAR 2022/10/01 07:56 UTC NOAA

KEED 010756Z AUTO 24003KT 10SM CLR 31/12 A2973 RMK AO2 SLP031 T03060122 403780267


Station Type Date Time Source
KEED Decoded METAR 2022/10/01 07:56 UTC NOAA

NEEDLES AIRPORT, CA, United States (KEED) 34-46N 114-37W
Oct 01, 2022 - 03:56 AM EDT / 2022.10.01 0756 UTC
Wind: from the WSW (240 degrees) at 3 MPH (3 KT):0
Visibility: 10 mile(s):0
Sky conditions: clear
Temperature: 87.1 F (30.6 C)
Dew Point: 54.0 F (12.2 C)
Relative Humidity: 32%
Pressure (altimeter): 29.73 in. Hg (1006 hPa)
ob: KEED 010756Z AUTO 24003KT 10SM CLR 31/12 A2973 RMK AO2 SLP031 T03060122 403780267
cycle: 8

Station Type Date Time Source
KEED TAF 2022/10/01 06:22 UTC NOAA

TAF KEED 010520Z 0106/0206 23008KT P6SM SKC
FM011000 VRB05KT P6SM SKC
FM011800 19010G18KT P6SM FEW150
FM020200 22007KT P6SM SKC

Example: see airport list